Time;durP1;ratioP1;P1;durP2;ratioP2;P2;SDS_P1;SDS_P2;PMS_P1;PMS_P2;Temp;Humidity;BMP_temperature;BMP_pressure;BME280_temperature;BME280_humidity;BME280_pressure;Samples;Min_cycle;Max_cycle;Signal;HPM_P1;HPM_P2
2023/06/07 00:01:08;;;;;;;12.40;8.65;;;;;;;;;;4438799;32;20073;-72
2023/06/07 00:03:33;;;;;;;15.82;8.68;;;;;;;;;;4437227;32;20363;-72
2023/06/07 00:06:00;;;;;;;16.67;7.60;;;;;;;;;;4438294;32;20026;-72
2023/06/07 00:08:26;;;;;;;19.15;9.43;;;;;;;;;;4422744;32;20064;-72
2023/06/07 00:10:51;;;;;;;20.65;9.23;;;;;;;;;;4448059;32;20029;-72
2023/06/07 00:13:16;;;;;;;19.00;7.87;;;;;;;;;;4452641;32;20040;-72
2023/06/07 00:15:41;;;;;;;13.62;8.05;;;;;;;;;;4446138;32;20124;-72
2023/06/07 00:18:07;;;;;;;9.85;7.15;;;;;;;;;;4439157;32;20058;-72
2023/06/07 00:20:33;;;;;;;18.50;8.80;;;;;;;;;;4436717;32;20022;-72
2023/06/07 00:22:58;;;;;;;18.67;8.20;;;;;;;;;;4436802;32;20396;-72
2023/06/07 00:25:23;;;;;;;19.52;9.52;;;;;;;;;;4437979;32;20457;-72
2023/06/07 00:27:48;;;;;;;15.02;8.50;;;;;;;;;;4423732;32;20022;-72
2023/06/07 00:30:14;;;;;;;13.97;8.30;;;;;;;;;;4436484;32;20078;-72
2023/06/07 00:32:39;;;;;;;17.00;9.30;;;;;;;;;;4422754;32;20113;-73
2023/06/07 00:35:07;;;;;;;21.73;8.73;;;;;;;;;;4436287;32;20374;-73
2023/06/07 00:37:32;;;;;;;13.68;9.02;;;;;;;;;;4436731;32;20018;-73
2023/06/07 00:39:57;;;;;;;16.92;8.73;;;;;;;;;;4422231;32;20355;-73
2023/06/07 00:42:22;;;;;;;19.17;9.07;;;;;;;;;;4436661;32;20021;-71
2023/06/07 00:44:48;;;;;;;20.90;8.90;;;;;;;;;;4437747;32;20143;-72
2023/06/07 00:47:13;;;;;;;13.57;8.02;;;;;;;;;;4436386;32;20037;-72
2023/06/07 00:49:38;;;;;;;16.10;8.27;;;;;;;;;;4435748;32;20449;-71
2023/06/07 00:52:04;;;;;;;15.63;8.48;;;;;;;;;;4423067;32;20017;-72
2023/06/07 00:54:29;;;;;;;18.80;9.02;;;;;;;;;;4436206;32;20113;-72
2023/06/07 00:56:55;;;;;;;18.52;9.18;;;;;;;;;;4447544;32;20021;-72
2023/06/07 00:59:20;;;;;;;23.33;9.60;;;;;;;;;;4440133;32;20324;-72
2023/06/07 01:01:47;;;;;;;21.70;8.73;;;;;;;;;;4421981;32;20018;-73
2023/06/07 01:04:13;;;;;;;16.67;8.73;;;;;;;;;;4436978;32;20026;-73
2023/06/07 01:06:38;;;;;;;19.15;8.23;;;;;;;;;;4436261;32;20430;-72
2023/06/07 01:09:06;;;;;;;14.20;8.32;;;;;;;;;;4437522;32;20029;-72
2023/06/07 01:11:32;;;;;;;15.85;9.32;;;;;;;;;;4435742;32;20450;-72
2023/06/07 01:13:57;;;;;;;15.25;8.43;;;;;;;;;;4436450;32;20148;-73
2023/06/07 01:16:23;;;;;;;18.62;9.82;;;;;;;;;;4437428;32;20029;-73
2023/06/07 01:18:48;;;;;;;14.02;8.73;;;;;;;;;;4435707;32;20304;-73
2023/06/07 01:21:18;;;;;;;16.80;9.63;;;;;;;;;;4436373;32;20021;-72
2023/06/07 01:23:43;;;;;;;17.30;8.35;;;;;;;;;;4437711;32;20022;-73
2023/06/07 01:26:09;;;;;;;17.83;9.18;;;;;;;;;;4421830;32;20056;-72
2023/06/07 01:28:35;;;;;;;19.83;9.00;;;;;;;;;;4437247;32;20403;-73
2023/06/07 01:31:00;;;;;;;;;;;;;;;;;;4435868;32;20368;-73
2023/06/07 01:33:26;;;;;;;20.67;8.07;;;;;;;;;;4443932;32;19955;-73
2023/06/07 01:35:52;;;;;;;18.62;8.52;;;;;;;;;;4455621;32;20029;-73
2023/06/07 01:38:19;;;;;;;16.62;8.95;;;;;;;;;;4452802;32;20045;-73
2023/06/07 01:40:45;;;;;;;17.70;9.20;;;;;;;;;;4436843;32;20343;-73
2023/06/07 01:43:10;;;;;;;14.10;7.87;;;;;;;;;;4438526;32;20018;-73
2023/06/07 01:45:37;;;;;;;23.10;8.70;;;;;;;;;;4451390;32;20074;-74
2023/06/07 01:48:02;;;;;;;19.42;9.02;;;;;;;;;;4450931;32;20056;-73
2023/06/07 01:50:28;;;;;;;18.02;8.63;;;;;;;;;;4441793;32;20022;-73
2023/06/07 01:52:53;;;;;;;18.20;9.77;;;;;;;;;;4450698;32;20056;-73
2023/06/07 01:55:19;;;;;;;14.73;7.83;;;;;;;;;;4436715;32;20072;-73
2023/06/07 01:57:52;;;;;;;17.75;7.97;;;;;;;;;;4451918;32;20151;-73
2023/06/07 02:00:26;;;;;;;17.75;8.27;;;;;;;;;;4452127;32;20129;-73
2023/06/07 02:02:56;;;;;;;19.20;8.40;;;;;;;;;;4451255;32;20526;-72
2023/06/07 02:05:26;;;;;;;23.52;8.32;;;;;;;;;;4452296;32;20017;-71
2023/06/07 02:07:55;;;;;;;15.60;7.60;;;;;;;;;;4455968;32;20017;-72
2023/06/07 02:10:23;;;;;;;15.85;8.10;;;;;;;;;;4454392;32;20102;-73
2023/06/07 02:12:49;;;;;;;13.88;7.10;;;;;;;;;;4439254;32;20079;-72
2023/06/07 02:15:14;;;;;;;24.12;7.87;;;;;;;;;;4438838;32;20407;-73
2023/06/07 02:17:49;;;;;;;15.30;8.23;;;;;;;;;;4440405;32;20052;-72
2023/06/07 02:20:15;;;;;;;15.15;8.05;;;;;;;;;;4424390;32;20088;-72
2023/06/07 02:22:40;;;;;;;14.13;6.62;;;;;;;;;;4424725;32;20013;-72
2023/06/07 02:25:05;;;;;;;11.15;7.07;;;;;;;;;;4440123;32;20059;-72
2023/06/07 02:27:31;;;;;;;13.48;6.90;;;;;;;;;;4438065;32;20052;-72
2023/06/07 02:29:56;;;;;;;;;;;;;;;;;;4440169;32;20025;-72
2023/06/07 02:32:21;;;;;;;13.48;7.90;;;;;;;;;;4438554;32;19937;-73
2023/06/07 02:34:47;;;;;;;22.67;8.32;;;;;;;;;;4438666;32;20044;-72
2023/06/07 02:37:13;;;;;;;13.75;6.87;;;;;;;;;;4438146;32;20025;-72
2023/06/07 02:39:38;;;;;;;14.20;7.40;;;;;;;;;;4438333;32;20026;-71
2023/06/07 02:42:03;;;;;;;17.52;7.95;;;;;;;;;;4438020;32;20034;-73
2023/06/07 02:44:28;;;;;;;15.57;7.95;;;;;;;;;;4426821;32;20033;-72
2023/06/07 02:46:53;;;;;;;16.60;7.93;;;;;;;;;;4437806;32;20403;-73
2023/06/07 02:49:19;;;;;;;16.80;8.32;;;;;;;;;;4438198;32;20113;-73
2023/06/07 02:51:44;;;;;;;16.20;7.70;;;;;;;;;;4439619;32;20415;-73
2023/06/07 02:54:09;;;;;;;;;;;;;;;;;;4424886;32;20437;-73
2023/06/07 02:56:35;;;;;;;17.62;8.80;;;;;;;;;;4439589;32;20000;-73
2023/06/07 02:59:00;;;;;;;13.77;7.62;;;;;;;;;;4438811;32;20147;-73
2023/06/07 03:01:27;;;;;;;23.50;8.00;;;;;;;;;;4438162;32;20022;-73
2023/06/07 03:03:52;;;;;;;18.00;8.38;;;;;;;;;;4439867;32;20022;-73
2023/06/07 03:06:17;;;;;;;15.05;7.35;;;;;;;;;;4425100;32;20064;-74
2023/06/07 03:08:42;;;;;;;18.65;8.48;;;;;;;;;;4423781;32;20033;-73
2023/06/07 03:11:07;;;;;;;19.45;7.60;;;;;;;;;;4438354;32;20060;-73
2023/06/07 03:13:32;;;;;;;16.15;8.13;;;;;;;;;;4439493;32;20022;-73
2023/06/07 03:15:58;;;;;;;13.70;7.22;;;;;;;;;;4423966;32;20456;-74
2023/06/07 03:18:23;;;;;;;;;;;;;;;;;;4438056;32;20026;-72
2023/06/07 03:20:48;;;;;;;15.63;8.77;;;;;;;;;;4438992;32;20397;-73
2023/06/07 03:23:14;;;;;;;17.00;8.13;;;;;;;;;;4425093;32;20103;-72
2023/06/07 03:25:40;;;;;;;15.73;8.60;;;;;;;;;;4437769;32;20030;-72
2023/06/07 03:28:05;;;;;;;;;;;;;;;;;;4425257;32;20040;-73
2023/06/07 03:30:30;;;;;;;16.98;9.20;;;;;;;;;;4439554;32;20027;-72
2023/06/07 03:32:55;;;;;;;20.12;9.07;;;;;;;;;;4438974;32;20022;-73
2023/06/07 03:35:21;;;;;;;18.37;7.87;;;;;;;;;;4438207;32;20395;-72
2023/06/07 03:37:46;;;;;;;;;;;;;;;;;;4437562;32;20018;-71
2023/06/07 03:40:11;;;;;;;17.20;8.43;;;;;;;;;;4425091;32;19951;-72
2023/06/07 03:42:37;;;;;;;22.13;9.25;;;;;;;;;;4437326;32;20143;-72
2023/06/07 03:45:02;;;;;;;21.42;8.57;;;;;;;;;;4438029;32;20018;-72
2023/06/07 03:47:28;;;;;;;21.80;8.23;;;;;;;;;;4437485;32;20091;-73
2023/06/07 03:49:53;;;;;;;16.33;7.57;;;;;;;;;;4437219;32;20067;-73
2023/06/07 03:52:18;;;;;;;15.05;7.80;;;;;;;;;;4439174;32;20018;-72
2023/06/07 03:54:43;;;;;;;16.55;7.70;;;;;;;;;;4437713;32;20038;-73
2023/06/07 03:57:08;;;;;;;14.40;7.13;;;;;;;;;;4438215;32;20014;-73
2023/06/07 03:59:33;;;;;;;14.07;6.78;;;;;;;;;;4422931;32;20125;-72
2023/06/07 04:02:00;;;;;;;16.70;6.35;;;;;;;;;;4438362;32;20048;-72
2023/06/07 04:04:27;;;;;;;15.07;6.90;;;;;;;;;;4438372;32;20026;-72
2023/06/07 04:06:52;;;;;;;16.17;7.03;;;;;;;;;;4437174;32;20021;-72
2023/06/07 04:09:19;;;;;;;19.23;8.18;;;;;;;;;;4438516;32;20335;-72
2023/06/07 04:11:45;;;;;;;15.45;6.65;;;;;;;;;;4437322;32;20047;-72
2023/06/07 04:14:10;;;;;;;13.43;8.18;;;;;;;;;;4437694;32;20033;-72
2023/06/07 04:16:35;;;;;;;;;;;;;;;;;;4438440;32;20025;-72
2023/06/07 04:19:00;;;;;;;17.58;7.62;;;;;;;;;;4423559;32;19970;-72
2023/06/07 04:21:25;;;;;;;14.95;6.55;;;;;;;;;;4438316;32;20425;-72
2023/06/07 04:23:50;;;;;;;15.13;7.15;;;;;;;;;;4437908;32;20079;-73
2023/06/07 04:26:18;;;;;;;17.12;7.72;;;;;;;;;;4438251;32;20366;-73
2023/06/07 04:28:45;;;;;;;14.98;7.93;;;;;;;;;;4447515;32;20366;-73
2023/06/07 04:31:12;;;;;;;14.25;7.60;;;;;;;;;;4445021;32;20321;-73
2023/06/07 04:33:39;;;;;;;18.42;7.25;;;;;;;;;;4446224;32;20061;-73
2023/06/07 04:36:04;;;;;;;11.38;6.37;;;;;;;;;;4432626;32;20015;-73
2023/06/07 04:38:29;;;;;;;16.23;7.78;;;;;;;;;;4437360;32;20014;-73
2023/06/07 04:40:55;;;;;;;14.57;7.53;;;;;;;;;;4435141;32;20026;-73
2023/06/07 04:43:20;;;;;;;16.98;5.95;;;;;;;;;;4435079;32;20415;-73
2023/06/07 04:45:55;;;;;;;13.07;5.70;;;;;;;;;;4442816;32;20021;-73
2023/06/07 04:48:24;;;;;;;12.73;5.80;;;;;;;;;;4452128;32;20112;-72
2023/06/07 04:50:50;;;;;;;14.45;6.68;;;;;;;;;;4449952;32;20052;-73
2023/06/07 04:53:19;;;;;;;11.05;6.28;;;;;;;;;;4440591;32;20041;-73
2023/06/07 04:55:45;;;;;;;19.75;6.68;;;;;;;;;;4439779;32;20022;-73
2023/06/07 04:58:11;;;;;;;17.37;6.28;;;;;;;;;;4436298;32;20072;-72
2023/06/07 05:00:38;;;;;;;15.75;7.00;;;;;;;;;;4437085;32;20072;-73
2023/06/07 05:03:08;;;;;;;13.18;5.78;;;;;;;;;;4436395;32;20051;-72
2023/06/07 05:05:33;;;;;;;13.32;6.18;;;;;;;;;;4437443;32;20022;-73
2023/06/07 05:07:58;;;;;;;16.67;6.32;;;;;;;;;;4438098;32;20085;-73
2023/06/07 05:10:24;;;;;;;18.43;6.93;;;;;;;;;;4437889;32;20094;-73
2023/06/07 05:12:49;;;;;;;15.35;6.90;;;;;;;;;;4440401;32;20172;-72
2023/06/07 05:15:15;;;;;;;16.02;6.37;;;;;;;;;;4451995;32;20044;-72
2023/06/07 05:17:40;;;;;;;13.77;6.28;;;;;;;;;;4453194;32;20390;-74
2023/06/07 05:20:10;;;;;;;14.63;6.50;;;;;;;;;;4450942;32;20403;-72
2023/06/07 05:22:35;;;;;;;15.45;6.30;;;;;;;;;;4450209;32;20100;-73
2023/06/07 05:25:00;;;;;;;15.60;6.00;;;;;;;;;;4450183;32;20402;-74
2023/06/07 05:27:25;;;;;;;17.90;5.60;;;;;;;;;;4443522;32;20058;-73
2023/06/07 05:29:50;;;;;;;13.47;5.87;;;;;;;;;;4444890;32;20021;-72
2023/06/07 05:32:15;;;;;;;14.70;6.75;;;;;;;;;;4423671;32;20210;-73
2023/06/07 05:34:42;;;;;;;15.75;6.32;;;;;;;;;;4438666;32;20116;-73
2023/06/07 05:37:07;;;;;;;13.52;7.03;;;;;;;;;;4438788;32;20029;-73
2023/06/07 05:39:32;;;;;;;16.05;6.32;;;;;;;;;;4440892;32;20055;-73
2023/06/07 05:41:58;;;;;;;16.98;6.18;;;;;;;;;;4437098;32;20018;-72
2023/06/07 05:44:23;;;;;;;14.25;5.28;;;;;;;;;;4436694;32;20026;-73
2023/06/07 05:46:48;;;;;;;12.70;5.25;;;;;;;;;;4435791;32;20097;-72
2023/06/07 05:49:13;;;;;;;16.23;5.87;;;;;;;;;;4449434;32;20351;-72
2023/06/07 05:51:38;;;;;;;20.15;6.55;;;;;;;;;;4452671;32;20132;-72
2023/06/07 05:54:05;;;;;;;14.38;5.03;;;;;;;;;;4452117;32;20037;-73
2023/06/07 05:56:30;;;;;;;17.83;5.82;;;;;;;;;;4450904;32;20044;-73
2023/06/07 05:58:56;;;;;;;17.23;5.95;;;;;;;;;;4435331;32;20061;-74
2023/06/07 06:01:21;;;;;;;20.00;5.97;;;;;;;;;;4449096;32;20060;-74
2023/06/07 06:03:46;;;;;;;25.85;5.85;;;;;;;;;;4451778;32;20017;-74
2023/06/07 06:06:13;;;;;;;16.23;6.87;;;;;;;;;;4450866;32;20052;-73
2023/06/07 06:08:38;;;;;;;18.77;7.12;;;;;;;;;;4435284;32;20048;-73
2023/06/07 06:11:03;;;;;;;12.85;6.80;;;;;;;;;;4436804;32;20441;-73
2023/06/07 06:13:30;;;;;;;13.68;6.90;;;;;;;;;;4436430;32;20201;-73
2023/06/07 06:15:55;;;;;;;19.40;5.97;;;;;;;;;;4436454;32;20415;-73
2023/06/07 06:18:20;;;;;;;16.60;5.55;;;;;;;;;;4446607;32;20026;-74
2023/06/07 06:20:46;;;;;;;20.15;6.57;;;;;;;;;;4451787;32;20017;-74
2023/06/07 06:23:11;;;;;;;15.30;6.20;;;;;;;;;;4444593;32;20112;-73
2023/06/07 06:25:36;;;;;;;15.48;6.18;;;;;;;;;;4436621;32;20304;-72
2023/06/07 06:28:02;;;;;;;16.25;5.75;;;;;;;;;;4435385;32;20072;-72
2023/06/07 06:30:27;;;;;;;15.80;5.85;;;;;;;;;;4434983;32;20049;-73
2023/06/07 06:32:52;;;;;;;21.73;5.60;;;;;;;;;;4420982;32;20017;-73
2023/06/07 06:35:17;;;;;;;14.52;5.53;;;;;;;;;;4434878;32;20408;-74
2023/06/07 06:37:42;;;;;;;19.73;6.05;;;;;;;;;;4439163;32;20366;-73
2023/06/07 06:40:08;;;;;;;14.13;5.25;;;;;;;;;;4434822;32;20021;-73
2023/06/07 06:42:33;;;;;;;19.70;5.87;;;;;;;;;;4434816;32;20044;-73
2023/06/07 06:44:58;;;;;;;20.30;5.50;;;;;;;;;;4434498;32;20442;-73
2023/06/07 06:47:25;;;;;;;13.55;5.62;;;;;;;;;;4436156;32;20117;-75
2023/06/07 06:49:51;;;;;;;15.85;4.45;;;;;;;;;;4434444;32;20073;-73
2023/06/07 06:52:16;;;;;;;14.27;5.53;;;;;;;;;;4437668;32;20075;-70
2023/06/07 06:54:41;;;;;;;15.10;6.40;;;;;;;;;;4436668;32;20088;-71
2023/06/07 06:57:08;;;;;;;11.63;5.05;;;;;;;;;;4438153;32;20316;-74
2023/06/07 06:59:33;;;;;;;17.37;5.25;;;;;;;;;;4439181;32;20025;-73
2023/06/07 07:01:59;;;;;;;12.65;4.62;;;;;;;;;;4439394;32;20343;-74
2023/06/07 07:04:25;;;;;;;13.40;4.93;;;;;;;;;;4436541;32;20038;-73
2023/06/07 07:06:50;;;;;;;18.70;6.07;;;;;;;;;;4437069;32;20110;-72
2023/06/07 07:09:16;;;;;;;20.58;4.90;;;;;;;;;;4438475;32;20017;-76
2023/06/07 07:11:41;;;;;;;11.75;5.32;;;;;;;;;;4439106;32;20053;-73
2023/06/07 07:14:06;;;;;;;10.48;4.97;;;;;;;;;;4439254;32;20026;-73
2023/06/07 07:16:31;;;;;;;18.77;5.40;;;;;;;;;;4438739;32;20017;-73
2023/06/07 07:18:57;;;;;;;12.88;5.78;;;;;;;;;;4437090;32;20021;-73
2023/06/07 07:21:22;;;;;;;11.57;4.62;;;;;;;;;;4437168;32;20046;-74
2023/06/07 07:23:47;;;;;;;15.80;6.12;;;;;;;;;;4438979;32;20053;-73
2023/06/07 07:26:12;;;;;;;12.77;5.40;;;;;;;;;;4437179;32;20030;-73
2023/06/07 07:28:37;;;;;;;17.95;5.82;;;;;;;;;;4437280;32;20073;-73
2023/06/07 07:31:03;;;;;;;18.10;5.65;;;;;;;;;;4437546;32;20391;-73
2023/06/07 07:33:28;;;;;;;16.58;6.20;;;;;;;;;;4438853;32;20070;-73
2023/06/07 07:35:53;;;;;;;10.10;5.10;;;;;;;;;;4437974;32;20041;-73
2023/06/07 07:38:18;;;;;;;16.95;5.35;;;;;;;;;;4437532;32;20135;-73
2023/06/07 07:40:47;;;;;;;10.82;4.80;;;;;;;;;;4436913;32;20021;-73
2023/06/07 07:43:12;;;;;;;13.88;5.30;;;;;;;;;;4438706;32;20034;-73
2023/06/07 07:45:37;;;;;;;17.52;5.90;;;;;;;;;;4438127;32;20113;-74
2023/06/07 07:48:03;;;;;;;11.55;5.03;;;;;;;;;;4437892;32;20029;-73
2023/06/07 07:50:29;;;;;;;11.75;4.97;;;;;;;;;;4437119;32;20401;-73
2023/06/07 07:52:56;;;;;;;18.67;5.78;;;;;;;;;;4438488;32;20467;-73
2023/06/07 07:55:22;;;;;;;13.90;4.65;;;;;;;;;;4436142;32;20017;-72
2023/06/07 07:57:48;;;;;;;17.33;6.07;;;;;;;;;;4437072;32;20057;-72
2023/06/07 08:00:14;;;;;;;13.40;5.28;;;;;;;;;;4436869;32;20051;-74
2023/06/07 08:02:40;;;;;;;12.15;5.15;;;;;;;;;;4436452;32;20060;-73
2023/06/07 08:05:06;;;;;;;15.65;5.97;;;;;;;;;;4437939;32;20340;-73
2023/06/07 08:07:32;;;;;;;12.70;5.03;;;;;;;;;;4438013;32;20017;-73
2023/06/07 08:09:57;;;;;;;17.20;7.12;;;;;;;;;;4435370;32;20458;-74
2023/06/07 08:12:22;;;;;;;18.63;6.00;;;;;;;;;;4437620;32;20013;-74
2023/06/07 08:14:47;;;;;;;11.90;5.03;;;;;;;;;;4435261;32;20199;-75
2023/06/07 08:17:13;;;;;;;17.55;5.70;;;;;;;;;;4436358;32;20021;-74
2023/06/07 08:19:38;;;;;;;13.55;4.72;;;;;;;;;;4438102;32;20078;-74
2023/06/07 08:22:04;;;;;;;18.40;4.78;;;;;;;;;;4437727;32;20022;-73
2023/06/07 08:24:29;;;;;;;14.27;4.97;;;;;;;;;;4436241;32;20022;-73
2023/06/07 08:26:54;;;;;;;15.18;5.35;;;;;;;;;;4438053;32;20067;-73
2023/06/07 08:29:20;;;;;;;14.63;5.93;;;;;;;;;;4436151;32;20026;-73
2023/06/07 08:31:45;;;;;;;12.27;5.28;;;;;;;;;;4434963;32;20071;-72
2023/06/07 08:34:10;;;;;;;12.75;4.50;;;;;;;;;;4436424;32;20025;-73
2023/06/07 08:36:36;;;;;;;15.18;4.45;;;;;;;;;;4435095;32;20021;-73
2023/06/07 08:39:02;;;;;;;15.55;5.60;;;;;;;;;;4436275;32;20026;-74
2023/06/07 08:41:27;;;;;;;14.57;5.30;;;;;;;;;;4437527;32;20431;-72
2023/06/07 08:43:53;;;;;;;14.23;5.55;;;;;;;;;;4437918;32;20373;-73
2023/06/07 08:46:19;;;;;;;19.20;5.25;;;;;;;;;;4435970;32;20051;-74
2023/06/07 08:48:47;;;;;;;15.50;5.75;;;;;;;;;;4437492;32;20026;-73
2023/06/07 08:51:14;;;;;;;12.90;5.47;;;;;;;;;;4434841;32;20456;-73
2023/06/07 08:53:54;;;;;;;15.90;5.40;;;;;;;;;;4435908;32;20064;-73
2023/06/07 08:56:21;;;;;;;12.13;5.35;;;;;;;;;;4436351;32;20093;-73
2023/06/07 08:58:47;;;;;;;13.40;5.03;;;;;;;;;;4434925;32;20021;-72
2023/06/07 09:01:12;;;;;;;16.05;5.10;;;;;;;;;;4439051;32;20520;-75
2023/06/07 09:03:38;;;;;;;11.10;4.93;;;;;;;;;;4430588;32;20054;-75
2023/06/07 09:06:03;;;;;;;11.32;5.20;;;;;;;;;;4442267;32;20442;-71
2023/06/07 09:08:28;;;;;;;14.15;4.87;;;;;;;;;;4427334;32;20101;-70
2023/06/07 09:10:53;;;;;;;15.73;5.28;;;;;;;;;;4432232;32;20025;-72
2023/06/07 09:13:22;;;;;;;14.48;5.43;;;;;;;;;;4438356;32;20026;-72
2023/06/07 09:15:47;;;;;;;10.52;5.10;;;;;;;;;;4451893;32;20327;-73
2023/06/07 09:18:12;;;;;;;14.80;4.85;;;;;;;;;;4451580;32;20043;-72
2023/06/07 09:20:38;;;;;;;11.38;5.15;;;;;;;;;;4438811;32;20060;-71
2023/06/07 09:23:06;;;;;;;14.02;5.65;;;;;;;;;;4453364;32;20014;-72
2023/06/07 09:25:31;;;;;;;15.70;5.10;;;;;;;;;;4428647;32;20109;-73
2023/06/07 09:27:56;;;;;;;10.35;4.25;;;;;;;;;;4444053;32;20108;-74
2023/06/07 09:30:22;;;;;;;15.82;5.43;;;;;;;;;;4441828;32;20078;-74
2023/06/07 09:32:48;;;;;;;9.80;4.57;;;;;;;;;;4436944;32;20367;-73
2023/06/07 09:35:14;;;;;;;11.57;4.07;;;;;;;;;;4447422;32;20051;-74
2023/06/07 09:37:44;;;;;;;13.27;4.95;;;;;;;;;;4436974;32;20025;-74
2023/06/07 09:40:09;;;;;;;12.55;4.75;;;;;;;;;;4436411;32;20017;-72
2023/06/07 09:42:34;;;;;;;12.07;5.70;;;;;;;;;;4451025;32;20066;-73
2023/06/07 09:45:12;;;;;;;14.80;4.85;;;;;;;;;;4452718;32;20059;-73
2023/06/07 09:47:38;;;;;;;15.43;5.57;;;;;;;;;;4451653;32;20170;-73
2023/06/07 09:50:07;;;;;;;11.43;4.75;;;;;;;;;;4446591;32;20033;-74
2023/06/07 09:52:32;;;;;;;15.63;5.07;;;;;;;;;;4443251;32;20460;-72
2023/06/07 09:54:57;;;;;;;18.30;4.43;;;;;;;;;;4443620;32;20064;-73
2023/06/07 09:57:23;;;;;;;14.77;5.95;;;;;;;;;;4452136;32;20387;-74
2023/06/07 09:59:55;;;;;;;9.45;4.70;;;;;;;;;;4438380;32;20121;-73
2023/06/07 10:02:24;;;;;;;12.32;5.25;;;;;;;;;;4443118;32;20163;-73
2023/06/07 10:04:50;;;;;;;16.85;6.12;;;;;;;;;;4420632;32;20017;-73
2023/06/07 10:07:18;;;;;;;12.30;4.93;;;;;;;;;;4436082;32;20052;-74
2023/06/07 10:09:43;;;;;;;15.45;5.47;;;;;;;;;;4435108;32;20423;-74
2023/06/07 10:12:10;;;;;;;13.20;4.80;;;;;;;;;;4424201;32;20052;-73
2023/06/07 10:14:36;;;;;;;14.23;4.95;;;;;;;;;;4436139;32;20029;-73
2023/06/07 10:17:06;;;;;;;19.02;5.87;;;;;;;;;;4435404;32;20392;-73
2023/06/07 10:19:43;;;;;;;12.20;5.72;;;;;;;;;;4433299;32;20036;-73
2023/06/07 10:22:11;;;;;;;11.07;5.05;;;;;;;;;;4445392;32;20151;-73
2023/06/07 10:24:42;;;;;;;13.80;5.60;;;;;;;;;;4429697;32;20475;-72
2023/06/07 10:27:13;;;;;;;9.63;4.70;;;;;;;;;;4425048;32;20098;-73
2023/06/07 10:29:39;;;;;;;13.52;4.97;;;;;;;;;;4437995;32;20052;-73
2023/06/07 10:32:13;;;;;;;12.40;5.12;;;;;;;;;;4437847;32;20018;-72
2023/06/07 10:34:38;;;;;;;13.48;4.78;;;;;;;;;;4440097;32;20056;-72
2023/06/07 10:37:07;;;;;;;13.32;4.75;;;;;;;;;;4436712;32;20029;-73
2023/06/07 10:39:32;;;;;;;14.75;5.87;;;;;;;;;;4454443;32;20033;-72
2023/06/07 10:41:57;;;;;;;13.05;5.18;;;;;;;;;;4454925;32;20554;-74
2023/06/07 10:44:23;;;;;;;12.10;5.57;;;;;;;;;;4451807;32;20025;-71
2023/06/07 10:46:48;;;;;;;15.43;6.15;;;;;;;;;;4438397;32;20105;-73
2023/06/07 10:49:33;;;;;;;20.10;5.37;;;;;;;;;;4437569;32;20427;-73
2023/06/07 10:52:01;;;;;;;15.68;5.37;;;;;;;;;;4437548;32;20316;-72
2023/06/07 10:54:30;;;;;;;13.32;5.60;;;;;;;;;;4425412;32;20083;-72
2023/06/07 10:56:55;;;;;;;13.98;5.70;;;;;;;;;;4437837;32;20017;-72
2023/06/07 10:59:22;;;;;;;17.05;6.80;;;;;;;;;;4454268;32;20078;-73
2023/06/07 11:01:49;;;;;;;12.25;5.30;;;;;;;;;;4454310;32;20047;-73
2023/06/07 11:04:37;;;;;;;11.50;5.53;;;;;;;;;;4443775;32;20025;-72
2023/06/07 11:07:18;;;;;;;15.63;6.50;;;;;;;;;;4423146;32;20026;-72
2023/06/07 11:09:43;;;;;;;16.70;5.80;;;;;;;;;;4441350;32;20078;-72
2023/06/07 11:12:29;;;;;;;12.43;6.30;;;;;;;;;;4454048;32;20037;-73
2023/06/07 11:15:13;;;;;;;10.68;5.55;;;;;;;;;;4452829;32;20054;-73
2023/06/07 11:17:54;;;;;;;13.68;6.32;;;;;;;;;;4448697;32;20061;-73
2023/06/07 11:20:37;;;;;;;14.15;6.60;;;;;;;;;;4446856;32;20049;-72
2023/06/07 11:23:21;;;;;;;10.85;5.37;;;;;;;;;;4437429;32;20026;-72
2023/06/07 11:25:53;;;;;;;12.40;5.53;;;;;;;;;;4437267;32;20100;-72
2023/06/07 11:28:27;;;;;;;10.13;4.93;;;;;;;;;;4437008;32;20065;-73
2023/06/07 11:30:52;;;;;;;14.25;5.72;;;;;;;;;;4436501;32;20018;-72
2023/06/07 11:33:20;;;;;;;12.30;5.40;;;;;;;;;;4423286;32;20057;-72
2023/06/07 11:35:45;;;;;;;9.50;5.47;;;;;;;;;;4428227;32;20338;-72
2023/06/07 11:38:11;;;;;;;16.80;5.30;;;;;;;;;;4440066;32;20026;-68
2023/06/07 11:40:36;;;;;;;15.68;5.78;;;;;;;;;;4442766;32;20383;-66
2023/06/07 11:43:01;;;;;;;11.75;5.05;;;;;;;;;;4445874;32;20025;-70
2023/06/07 11:45:27;;;;;;;13.05;4.85;;;;;;;;;;4439663;32;20444;-67
2023/06/07 11:47:56;;;;;;;15.07;5.45;;;;;;;;;;4442195;32;20105;-68
2023/06/07 11:50:22;;;;;;;11.07;4.70;;;;;;;;;;4438356;32;20026;-67
2023/06/07 11:52:47;;;;;;;13.70;5.55;;;;;;;;;;4438713;32;20022;-68
2023/06/07 11:55:13;;;;;;;12.73;4.93;;;;;;;;;;4439238;32;20383;-69
2023/06/07 11:57:38;;;;;;;11.10;4.70;;;;;;;;;;4436510;32;20225;-69
2023/06/07 12:00:08;;;;;;;10.40;4.80;;;;;;;;;;4437313;32;20500;-69
2023/06/07 12:02:39;;;;;;;9.15;4.75;;;;;;;;;;4435918;32;20051;-68
2023/06/07 12:05:05;;;;;;;12.68;5.20;;;;;;;;;;4437309;32;20014;-68
2023/06/07 12:07:31;;;;;;;8.82;4.53;;;;;;;;;;4436675;32;20022;-68
2023/06/07 12:09:56;;;;;;;13.82;5.18;;;;;;;;;;4422184;32;20014;-68
2023/06/07 12:12:22;;;;;;;11.80;4.97;;;;;;;;;;4438199;32;20059;-68
2023/06/07 12:14:58;;;;;;;10.13;4.75;;;;;;;;;;4442726;32;20128;-69
2023/06/07 12:17:23;;;;;;;9.93;4.12;;;;;;;;;;4440495;32;20105;-68
2023/06/07 12:19:48;;;;;;;10.57;4.43;;;;;;;;;;4432407;32;20052;-68
2023/06/07 12:22:14;;;;;;;11.30;4.70;;;;;;;;;;4444449;32;20402;-69
2023/06/07 12:24:40;;;;;;;9.77;4.60;;;;;;;;;;4440464;32;20456;-69
2023/06/07 12:27:05;;;;;;;10.52;5.05;;;;;;;;;;4443554;32;20091;-68
2023/06/07 12:29:31;;;;;;;12.50;4.85;;;;;;;;;;4451450;32;20041;-68
2023/06/07 12:31:57;;;;;;;11.68;5.00;;;;;;;;;;4438531;32;20030;-68
2023/06/07 12:34:26;;;;;;;13.13;6.30;;;;;;;;;;4449459;32;20088;-68
2023/06/07 12:36:52;;;;;;;9.13;4.32;;;;;;;;;;4430196;32;20052;-68
2023/06/07 12:39:20;;;;;;;11.45;4.37;;;;;;;;;;4438465;32;20104;-69
2023/06/07 12:41:45;;;;;;;10.75;5.03;;;;;;;;;;4453376;32;20135;-68
2023/06/07 12:44:11;;;;;;;9.17;4.70;;;;;;;;;;4438304;32;20418;-68
2023/06/07 12:46:36;;;;;;;11.60;4.95;;;;;;;;;;4435686;32;20117;-69
2023/06/07 12:49:02;;;;;;;12.63;4.47;;;;;;;;;;4422565;32;20060;-66
2023/06/07 12:51:27;;;;;;;9.40;4.53;;;;;;;;;;4423031;32;20018;-67
2023/06/07 12:53:53;;;;;;;8.88;4.40;;;;;;;;;;4441693;32;20068;-68
2023/06/07 12:56:18;;;;;;;10.43;4.72;;;;;;;;;;4440229;32;20462;-69
2023/06/07 12:58:44;;;;;;;11.45;5.15;;;;;;;;;;4437680;32;20411;-68
2023/06/07 13:01:09;;;;;;;11.85;4.60;;;;;;;;;;4440243;32;20018;-68
2023/06/07 13:03:34;;;;;;;11.00;4.40;;;;;;;;;;4437635;32;20026;-68
2023/06/07 13:05:59;;;;;;;12.10;4.60;;;;;;;;;;4437065;32;20037;-68
2023/06/07 13:08:25;;;;;;;8.45;4.50;;;;;;;;;;4436522;32;20132;-69
2023/06/07 13:10:52;;;;;;;11.43;4.37;;;;;;;;;;4437207;32;20118;-69
2023/06/07 13:13:17;;;;;;;14.87;4.85;;;;;;;;;;4430027;32;20030;-68
2023/06/07 13:15:42;;;;;;;8.95;4.70;;;;;;;;;;4435752;32;20047;-68
2023/06/07 13:18:07;;;;;;;10.32;4.40;;;;;;;;;;4446501;32;20065;-68
2023/06/07 13:20:33;;;;;;;8.93;4.57;;;;;;;;;;4451365;32;20029;-68
2023/06/07 13:22:58;;;;;;;9.85;4.15;;;;;;;;;;4452493;32;20250;-68
2023/06/07 13:25:23;;;;;;;8.05;4.50;;;;;;;;;;4452388;32;20079;-66
2023/06/07 13:27:49;;;;;;;7.70;3.77;;;;;;;;;;4424678;32;20026;-68
2023/06/07 13:30:14;;;;;;;11.75;5.00;;;;;;;;;;4435322;32;20142;-68
2023/06/07 13:32:40;;;;;;;10.38;4.57;;;;;;;;;;4437011;32;20044;-69
2023/06/07 13:35:05;;;;;;;9.57;4.30;;;;;;;;;;4442034;32;20020;-68
2023/06/07 13:37:30;;;;;;;12.98;5.18;;;;;;;;;;4450289;32;20017;-68
2023/06/07 13:39:57;;;;;;;14.17;4.37;;;;;;;;;;4421227;32;20025;-69
2023/06/07 13:42:24;;;;;;;7.57;4.05;;;;;;;;;;4435719;32;20169;-68
2023/06/07 13:44:49;;;;;;;8.70;4.10;;;;;;;;;;4445346;32;20092;-68
2023/06/07 13:47:14;;;;;;;6.78;3.83;;;;;;;;;;4451123;32;20380;-68
2023/06/07 13:49:39;;;;;;;10.25;4.37;;;;;;;;;;4451032;32;20435;-69
2023/06/07 13:52:06;;;;;;;6.85;3.97;;;;;;;;;;4437281;32;20029;-69
2023/06/07 13:54:31;;;;;;;8.27;4.03;;;;;;;;;;4450195;32;20067;-69
2023/06/07 13:56:57;;;;;;;14.27;4.62;;;;;;;;;;4448601;32;20018;-69
2023/06/07 13:59:23;;;;;;;11.52;4.28;;;;;;;;;;4436290;32;20052;-68
2023/06/07 14:01:48;;;;;;;13.70;4.85;;;;;;;;;;4440484;32;20075;-70
2023/06/07 14:04:13;;;;;;;10.60;3.83;;;;;;;;;;4453445;32;20051;-69
2023/06/07 14:06:39;;;;;;;9.10;4.30;;;;;;;;;;4457284;32;20037;-67
2023/06/07 14:09:04;;;;;;;7.32;4.62;;;;;;;;;;4456951;32;20116;-68
2023/06/07 14:11:30;;;;;;;4.82;3.53;;;;;;;;;;4457672;32;20074;-69
2023/06/07 14:13:56;;;;;;;8.82;4.35;;;;;;;;;;4441505;32;20040;-69
2023/06/07 14:16:21;;;;;;;11.80;4.32;;;;;;;;;;4450569;32;20017;-70
2023/06/07 14:18:47;;;;;;;9.07;5.00;;;;;;;;;;4455552;32;20048;-67
2023/06/07 14:21:12;;;;;;;9.57;4.72;;;;;;;;;;4441905;32;20117;-68
2023/06/07 14:23:37;;;;;;;9.32;4.25;;;;;;;;;;4455302;32;20039;-69
2023/06/07 14:26:02;;;;;;;7.43;3.83;;;;;;;;;;4456929;32;20045;-68
2023/06/07 14:28:27;;;;;;;7.43;4.27;;;;;;;;;;4442883;32;20167;-68